Time,TemperatureF,DewpointF,PressureIn,WindDirection,WindDirectionDegrees,WindSpeedMPH,WindSpeedGustMPH,Humidity,HourlyPrecipIn,Conditions,Clouds,dailyrainin,SoftwareType,DateUTC
2013-01-08 00:00:00,28.6,27.6,30.32,SW,218,0.0,0.0,96,0.00,,,0.00,Wunderground v.1.15,2013-01-08 05:00:00,
2013-01-08 00:02:00,28.5,27.5,30.32,SW,217,0.0,0.0,96,0.00,,,0.00,Wunderground v.1.15,2013-01-08 05:02:00,
2013-01-08 00:03:00,28.4,27.4,30.32,SW,218,0.0,0.0,96,0.00,,,0.00,Wunderground v.1.15,2013-01-08 05:03:00,
2013-01-08 00:06:00,28.3,27.3,30.32,SW,218,0.0,0.0,96,0.00,,,0.00,Wunderground v.1.15,2013-01-08 05:06:00,
2013-01-08 00:11:00,28.2,27.2,30.32,SW,218,0.0,0.0,96,0.00,,,0.00,Wunderground v.1.15,2013-01-08 05:11:00,
2013-01-08 00:16:00,28.1,27.1,30.32,SW,218,0.0,0.0,96,0.00,,,0.00,Wunderground v.1.15,2013-01-08 05:16:00,
2013-01-08 00:21:00,27.8,26.8,30.32,SW,218,0.0,0.0,96,0.00,,,0.00,Wunderground v.1.15,2013-01-08 05:21:00,
2013-01-08 00:27:00,27.6,26.6,30.32,SW,218,0.0,0.0,96,0.00,,,0.00,Wunderground v.1.15,2013-01-08 05:27:00,
2013-01-08 00:32:00,27.6,26.9,30.32,SW,218,0.0,0.0,97,0.00,,,0.00,Wunderground v.1.15,2013-01-08 05:32:00,
2013-01-08 00:37:00,27.3,26.6,30.32,SW,218,0.0,0.0,97,0.00,,,0.00,Wunderground v.1.15,2013-01-08 05:37:00,
2013-01-08 00:42:00,27.3,26.6,30.32,SW,218,0.0,0.0,97,0.00,,,0.00,Wunderground v.1.15,2013-01-08 05:42:00,
2013-01-08 00:48:00,27.3,26.6,30.32,SW,217,0.0,0.0,97,0.00,,,0.00,Wunderground v.1.15,2013-01-08 05:48:00,
2013-01-08 00:53:00,27.4,26.7,30.32,SW,218,0.0,0.0,97,0.00,,,0.00,Wunderground v.1.15,2013-01-08 05:53:00,
2013-01-08 00:58:00,27.3,26.6,30.32,SW,217,0.0,0.0,97,0.00,,,0.00,Wunderground v.1.15,2013-01-08 05:58:00,
2013-01-08 01:04:00,27.6,26.9,30.32,SW,218,0.0,0.0,97,0.00,,,0.00,Wunderground v.1.15,2013-01-08 06:04:00,
2013-01-08 01:09:00,27.7,27.0,30.33,SW,217,0.0,0.0,97,0.00,,,0.00,Wunderground v.1.15,2013-01-08 06:09:00,
2013-01-08 01:14:00,27.5,26.8,30.33,SW,218,0.0,0.0,97,0.00,,,0.00,Wunderground v.1.15,2013-01-08 06:14:00,
2013-01-08 01:19:00,27.1,26.4,30.33,SW,218,0.0,0.0,97,0.00,,,0.00,Wunderground v.1.15,2013-01-08 06:19:00,
2013-01-08 01:24:00,27.0,26.3,30.33,SW,219,0.0,0.0,97,0.00,,,0.00,Wunderground v.1.15,2013-01-08 06:24:00,
2013-01-08 01:29:00,26.8,26.1,30.33,SW,218,0.0,0.0,97,0.00,,,0.00,Wunderground v.1.15,2013-01-08 06:29:00,
2013-01-08 01:34:00,26.7,26.0,30.33,SW,218,0.0,0.0,97,0.00,,,0.00,Wunderground v.1.15,2013-01-08 06:34:00,
2013-01-08 01:39:00,26.7,26.0,30.33,SW,218,1.0,1.0,97,0.00,,,0.00,Wunderground v.1.15,2013-01-08 06:39:00,
2013-01-08 01:44:00,26.8,26.1,30.33,SW,232,0.0,1.0,97,0.00,,,0.00,Wunderground v.1.15,2013-01-08 06:44:00,
2013-01-08 01:49:00,26.8,26.1,30.33,SW,232,0.0,1.0,97,0.00,,,0.00,Wunderground v.1.15,2013-01-08 06:49:00,
2013-01-08 01:54:00,26.7,26.0,30.33,SW,232,0.0,1.0,97,0.00,,,0.00,Wunderground v.1.15,2013-01-08 06:54:00,
2013-01-08 01:59:00,26.7,26.0,30.33,SW,232,0.0,0.0,97,0.00,,,0.00,Wunderground v.1.15,2013-01-08 06:59:00,
2013-01-08 02:04:00,26.7,26.0,30.33,SW,232,0.0,1.0,97,0.00,,,0.00,Wunderground v.1.15,2013-01-08 07:04:00,
2013-01-08 02:09:00,26.7,26.0,30.33,SW,228,1.0,1.0,97,0.00,,,0.00,Wunderground v.1.15,2013-01-08 07:09:00,
2013-01-08 02:14:00,26.6,25.9,30.33,SW,228,0.0,1.0,97,0.00,,,0.00,Wunderground v.1.15,2013-01-08 07:14:00,
2013-01-08 02:19:00,26.4,25.7,30.33,SW,228,0.0,0.0,97,0.00,,,0.00,Wunderground v.1.15,2013-01-08 07:19:00,
2013-01-08 02:24:00,26.1,25.4,30.33,SW,228,0.0,0.0,97,0.00,,,0.00,Wunderground v.1.15,2013-01-08 07:24:00,
2013-01-08 02:29:00,26.2,25.5,30.33,SW,228,0.0,0.0,97,0.00,,,0.00,Wunderground v.1.15,2013-01-08 07:29:00,
2013-01-08 02:34:00,26.7,26.0,30.33,SW,228,0.0,0.0,97,0.00,,,0.00,Wunderground v.1.15,2013-01-08 07:34:00,
2013-01-08 02:39:00,27.2,26.7,30.33,SW,228,0.0,0.0,98,0.00,,,0.00,Wunderground v.1.15,2013-01-08 07:39:00,
2013-01-08 02:44:00,27.4,26.9,30.33,SW,228,0.0,1.0,98,0.00,,,0.00,Wunderground v.1.15,2013-01-08 07:44:00,
2013-01-08 02:49:00,27.5,27.0,30.33,NNW,335,1.0,1.0,98,0.00,,,0.00,Wunderground v.1.15,2013-01-08 07:49:00,
2013-01-08 02:54:00,27.6,26.9,30.33,NNW,337,0.0,1.0,97,0.00,,,0.00,Wunderground v.1.15,2013-01-08 07:54:00,
2013-01-08 02:59:00,27.5,26.8,30.33,NNW,337,0.0,0.0,97,0.00,,,0.00,Wunderground v.1.15,2013-01-08 07:59:00,
2013-01-08 03:04:00,27.1,26.4,30.33,NNW,337,0.0,0.0,97,0.00,,,0.00,Wunderground v.1.15,2013-01-08 08:04:00,
2013-01-08 03:09:00,26.8,26.1,30.33,NNW,338,0.0,0.0,97,0.00,,,0.00,Wunderground v.1.15,2013-01-08 08:09:00,
2013-01-08 03:14:00,26.7,26.0,30.33,NNW,337,0.0,0.0,97,0.00,,,0.00,Wunderground v.1.15,2013-01-08 08:14:00,
2013-01-08 03:19:00,26.5,25.8,30.33,NNW,337,0.0,0.0,97,0.00,,,0.00,Wunderground v.1.15,2013-01-08 08:19:00,
2013-01-08 03:24:00,26.3,25.6,30.33,West,280,1.0,1.0,97,0.00,,,0.00,Wunderground v.1.15,2013-01-08 08:24:00,
2013-01-08 03:29:00,26.2,25.5,30.33,WSW,250,1.0,1.0,97,0.00,,,0.00,Wunderground v.1.15,2013-01-08 08:29:00,
2013-01-08 03:34:00,26.0,25.3,30.33,SW,224,1.0,1.0,97,0.00,,,0.00,Wunderground v.1.15,2013-01-08 08:34:00,
2013-01-08 03:39:00,26.0,25.3,30.33,SW,224,0.0,1.0,97,0.00,,,0.00,Wunderground v.1.15,2013-01-08 08:39:00,
2013-01-08 03:44:00,26.0,25.3,30.33,SW,224,0.0,1.0,97,0.00,,,0.00,Wunderground v.1.15,2013-01-08 08:44:00,
2013-01-08 03:49:00,25.8,25.1,30.33,SW,224,0.0,0.0,97,0.00,,,0.00,Wunderground v.1.15,2013-01-08 08:49:00,
2013-01-08 03:54:00,26.1,25.6,30.34,SW,224,0.0,1.0,98,0.00,,,0.00,Wunderground v.1.15,2013-01-08 08:54:00,
2013-01-08 03:59:00,26.1,25.6,30.33,SW,224,0.0,0.0,98,0.00,,,0.00,Wunderground v.1.15,2013-01-08 08:59:00,
2013-01-08 04:04:00,25.9,25.2,30.33,SW,224,0.0,1.0,97,0.00,,,0.00,Wunderground v.1.15,2013-01-08 09:04:00,
2013-01-08 04:09:00,25.8,25.1,30.33,SW,224,0.0,1.0,97,0.00,,,0.00,Wunderground v.1.15,2013-01-08 09:09:00,
2013-01-08 04:14:00,25.8,25.1,30.33,SW,224,0.0,1.0,97,0.00,,,0.00,Wunderground v.1.15,2013-01-08 09:14:00,
2013-01-08 04:19:00,25.8,25.3,30.33,SW,224,0.0,1.0,98,0.00,,,0.00,Wunderground v.1.15,2013-01-08 09:19:00,
2013-01-08 04:25:00,25.7,25.0,30.33,SW,224,0.0,1.0,97,0.00,,,0.00,Wunderground v.1.15,2013-01-08 09:25:00,
2013-01-08 04:30:00,25.7,25.0,30.33,SW,224,1.0,1.0,97,0.00,,,0.00,Wunderground v.1.15,2013-01-08 09:30:00,
2013-01-08 04:35:00,25.7,25.2,30.33,SW,224,0.0,1.0,98,0.00,,,0.00,Wunderground v.1.15,2013-01-08 09:35:00,
2013-01-08 04:40:00,25.8,25.3,30.32,SW,224,0.0,0.0,98,0.00,,,0.00,Wunderground v.1.15,2013-01-08 09:40:00,
2013-01-08 04:45:00,25.8,25.1,30.32,SW,224,0.0,0.0,97,0.00,,,0.00,Wunderground v.1.15,2013-01-08 09:45:00,
2013-01-08 04:50:00,25.8,25.1,30.32,SW,224,0.0,0.0,97,0.00,,,0.00,Wunderground v.1.15,2013-01-08 09:50:00,
2013-01-08 04:55:00,26.0,25.5,30.33,SW,224,0.0,0.0,98,0.00,,,0.00,Wunderground v.1.15,2013-01-08 09:55:00,
2013-01-08 05:00:00,26.0,25.5,30.33,SW,224,0.0,0.0,98,0.00,,,0.00,Wunderground v.1.15,2013-01-08 10:00:00,
2013-01-08 05:05:00,25.9,25.4,30.33,SW,224,0.0,0.0,98,0.00,,,0.00,Wunderground v.1.15,2013-01-08 10:05:00,
2013-01-08 05:10:00,25.8,25.1,30.32,SW,224,0.0,0.0,97,0.00,,,0.00,Wunderground v.1.15,2013-01-08 10:10:00,
2013-01-08 05:15:00,25.8,25.1,30.32,SW,224,0.0,0.0,97,0.00,,,0.00,Wunderground v.1.15,2013-01-08 10:15:00,
2013-01-08 05:20:00,25.8,25.1,30.32,SW,224,0.0,0.0,97,0.00,,,0.00,Wunderground v.1.15,2013-01-08 10:20:00,
2013-01-08 05:25:00,25.7,25.0,30.33,SW,224,0.0,0.0,97,0.00,,,0.00,Wunderground v.1.15,2013-01-08 10:25:00,
2013-01-08 05:30:00,25.7,25.2,30.33,SW,224,0.0,0.0,98,0.00,,,0.00,Wunderground v.1.15,2013-01-08 10:30:00,
2013-01-08 05:35:00,25.7,25.0,30.32,SW,224,0.0,0.0,97,0.00,,,0.00,Wunderground v.1.15,2013-01-08 10:35:00,
2013-01-08 05:40:00,25.8,25.3,30.33,SW,224,0.0,1.0,98,0.00,,,0.00,Wunderground v.1.15,2013-01-08 10:40:00,
2013-01-08 05:45:00,25.9,25.4,30.34,WSW,255,1.0,1.0,98,0.00,,,0.00,Wunderground v.1.15,2013-01-08 10:45:00,
2013-01-08 05:50:00,26.0,25.5,30.33,WSW,255,0.0,0.0,98,0.00,,,0.00,Wunderground v.1.15,2013-01-08 10:50:00,
2013-01-08 05:55:00,25.9,25.2,30.34,WSW,255,0.0,0.0,97,0.00,,,0.00,Wunderground v.1.15,2013-01-08 10:55:00,
2013-01-08 06:00:00,25.9,25.2,30.34,WSW,255,0.0,0.0,97,0.00,,,0.00,Wunderground v.1.15,2013-01-08 11:00:00,
2013-01-08 06:05:00,26.2,25.5,30.33,WSW,255,0.0,0.0,97,0.00,,,0.00,Wunderground v.1.15,2013-01-08 11:05:00,
2013-01-08 06:10:00,26.5,25.8,30.34,WSW,254,0.0,0.0,97,0.00,,,0.00,Wunderground v.1.15,2013-01-08 11:10:00,
2013-01-08 06:15:00,26.6,26.1,30.34,WSW,255,0.0,0.0,98,0.00,,,0.00,Wunderground v.1.15,2013-01-08 11:15:00,
2013-01-08 06:20:00,26.5,25.8,30.34,WSW,255,0.0,0.0,97,0.00,,,0.00,Wunderground v.1.15,2013-01-08 11:20:00,
2013-01-08 06:25:00,26.4,25.7,30.34,WSW,255,0.0,0.0,97,0.00,,,0.00,Wunderground v.1.15,2013-01-08 11:25:00,
2013-01-08 06:30:00,26.3,25.6,30.34,WSW,255,0.0,0.0,97,0.00,,,0.00,Wunderground v.1.15,2013-01-08 11:30:00,
2013-01-08 06:35:00,26.4,25.9,30.34,WSW,255,0.0,0.0,98,0.00,,,0.00,Wunderground v.1.15,2013-01-08 11:35:00,
2013-01-08 06:40:00,26.3,25.6,30.34,WSW,255,0.0,0.0,97,0.00,,,0.00,Wunderground v.1.15,2013-01-08 11:40:00,
2013-01-08 06:45:00,26.2,25.5,30.34,WSW,255,0.0,1.0,97,0.00,,,0.00,Wunderground v.1.15,2013-01-08 11:45:00,
2013-01-08 06:50:00,26.6,26.1,30.35,WSW,255,0.0,0.0,98,0.00,,,0.00,Wunderground v.1.15,2013-01-08 11:50:00,
2013-01-08 06:55:00,26.7,26.2,30.35,WSW,255,0.0,1.0,98,0.00,,,0.00,Wunderground v.1.15,2013-01-08 11:55:00,
2013-01-08 07:00:00,26.6,25.9,30.35,WSW,255,0.0,0.0,97,0.00,,,0.00,Wunderground v.1.15,2013-01-08 12:00:00,
2013-01-08 07:05:00,26.5,25.8,30.35,WSW,255,0.0,0.0,97,0.00,,,0.00,Wunderground v.1.15,2013-01-08 12:05:00,
2013-01-08 07:10:00,26.5,26.0,30.35,WSW,255,0.0,0.0,98,0.00,,,0.00,Wunderground v.1.15,2013-01-08 12:10:00,
2013-01-08 07:15:00,26.5,26.0,30.35,WSW,255,0.0,0.0,98,0.00,,,0.00,Wunderground v.1.15,2013-01-08 12:15:00,
2013-01-08 07:20:00,26.5,26.0,30.36,WSW,255,0.0,0.0,98,0.00,,,0.00,Wunderground v.1.15,2013-01-08 12:20:00,
2013-01-08 07:25:00,26.5,26.0,30.36,WSW,254,0.0,0.0,98,0.00,,,0.00,Wunderground v.1.15,2013-01-08 12:25:00,
2013-01-08 07:30:00,26.5,26.0,30.36,WSW,255,0.0,0.0,98,0.00,,,0.00,Wunderground v.1.15,2013-01-08 12:30:00,
2013-01-08 07:35:00,26.7,26.2,30.36,WSW,255,0.0,0.0,98,0.00,,,0.00,Wunderground v.1.15,2013-01-08 12:35:00,
2013-01-08 07:40:00,26.7,26.2,30.36,WSW,255,0.0,0.0,98,0.00,,,0.00,Wunderground v.1.15,2013-01-08 12:40:00,
2013-01-08 07:45:00,26.6,26.1,30.37,WSW,255,0.0,0.0,98,0.00,,,0.00,Wunderground v.1.15,2013-01-08 12:45:00,
2013-01-08 07:50:00,26.6,26.1,30.37,WSW,255,0.0,0.0,98,0.00,,,0.00,Wunderground v.1.15,2013-01-08 12:50:00,
2013-01-08 07:55:00,26.7,26.2,30.37,WSW,255,0.0,0.0,98,0.00,,,0.00,Wunderground v.1.15,2013-01-08 12:55:00,
2013-01-08 08:00:00,26.6,26.1,30.37,WSW,255,0.0,0.0,98,0.00,,,0.00,Wunderground v.1.15,2013-01-08 13:00:00,
2013-01-08 08:05:00,26.8,26.3,30.37,WSW,255,0.0,0.0,98,0.00,,,0.00,Wunderground v.1.15,2013-01-08 13:05:00,
2013-01-08 08:11:00,26.9,26.4,30.37,WSW,255,0.0,0.0,98,0.00,,,0.00,Wunderground v.1.15,2013-01-08 13:11:00,
2013-01-08 08:15:00,27.0,26.5,30.38,WSW,255,0.0,0.0,98,0.00,,,0.00,Wunderground v.1.15,2013-01-08 13:15:00,
2013-01-08 08:21:00,27.1,26.6,30.38,WSW,255,0.0,0.0,98,0.00,,,0.00,Wunderground v.1.15,2013-01-08 13:21:00,
2013-01-08 08:25:00,27.3,26.8,30.38,WSW,253,0.0,1.0,98,0.00,,,0.00,Wunderground v.1.15,2013-01-08 13:25:00,
2013-01-08 08:30:00,27.4,26.9,30.38,WSW,253,0.0,0.0,98,0.00,,,0.00,Wunderground v.1.15,2013-01-08 13:30:00,